Time;durP1;ratioP1;P1;durP2;ratioP2;P2;SDS_P1;SDS_P2;PMS_P1;PMS_P2;Temp;Humidity;BMP_temperature;BMP_pressure;BME280_temperature;BME280_humidity;BME280_pressure;Samples;Min_cycle;Max_cycle;Signal;HPM_P1;HPM_P2
2020/12/14 00:01:05;;;;;;;6.43;5.72;;;4.90;1.00;;;;;;5085373;28;20278;-74
2020/12/14 00:03:34;;;;;;;6.65;5.28;;;4.80;1.00;;;;;;5067920;28;20216;-76
2020/12/14 00:06:01;;;;;;;6.93;6.23;;;4.80;1.00;;;;;;5084688;28;20206;-73
2020/12/14 00:08:28;;;;;;;6.22;5.63;;;4.70;1.00;;;;;;5084580;28;20476;-74
2020/12/14 00:10:55;;;;;;;7.13;6.43;;;4.60;1.00;;;;;;5086054;28;20219;-74
2020/12/14 00:13:23;;;;;;;7.80;6.03;;;4.60;1.00;;;;;;5085793;28;20264;-74
2020/12/14 00:15:50;;;;;;;6.53;5.80;;;4.50;1.00;;;;;;5071098;28;20575;-74
2020/12/14 00:18:17;;;;;;;5.53;5.03;;;4.40;1.00;;;;;;5091502;28;20725;-75
2020/12/14 00:20:45;;;;;;;5.90;5.40;;;4.40;1.00;;;;;;5090721;28;20276;-74
2020/12/14 00:23:12;;;;;;;8.80;6.18;;;4.30;1.00;;;;;;5090772;28;20202;-74
2020/12/14 00:25:39;;;;;;;5.15;4.75;;;4.20;1.00;;;;;;5084334;28;20258;-76
2020/12/14 00:28:06;;;;;;;5.47;4.78;;;4.20;1.00;;;;;;5082627;28;20616;-73
2020/12/14 00:30:33;;;;;;;5.43;4.93;;;4.20;1.00;;;;;;5066637;28;20744;-76
2020/12/14 00:33:01;;;;;;;4.43;4.10;;;4.20;1.00;;;;;;5063542;28;20257;-73
2020/12/14 00:35:28;;;;;;;4.82;4.32;;;4.30;1.00;;;;;;5080895;28;20303;-74
2020/12/14 00:37:56;;;;;;;4.75;4.35;;;4.30;1.00;;;;;;5083984;28;20238;-74
2020/12/14 00:40:23;;;;;;;3.75;3.45;;;4.30;1.00;;;;;;5063982;28;20260;-75
2020/12/14 00:42:50;;;;;;;5.20;4.45;;;4.30;1.00;;;;;;5065421;28;20575;-74
2020/12/14 00:45:17;;;;;;;4.50;4.10;;;4.30;1.00;;;;;;5082074;28;20230;-74
2020/12/14 00:47:44;;;;;;;6.20;5.43;;;4.20;1.00;;;;;;5079458;28;20280;-77
2020/12/14 00:50:11;;;;;;;5.22;4.20;;;4.10;1.00;;;;;;5084973;28;20207;-74
2020/12/14 00:52:38;;;;;;;6.60;5.18;;;4.20;1.00;;;;;;5084235;28;20226;-74
2020/12/14 00:55:06;;;;;;;5.03;4.53;;;4.20;1.00;;;;;;5082429;28;20284;-74
2020/12/14 00:57:33;;;;;;;5.07;4.57;;;4.30;1.00;;;;;;5081070;28;20223;-75
2020/12/14 01:00:00;;;;;;;5.20;4.65;;;4.30;1.00;;;;;;5082149;28;20216;-75
2020/12/14 01:02:27;;;;;;;6.72;3.95;;;4.30;1.00;;;;;;5066855;28;20628;-75
2020/12/14 01:04:54;;;;;;;6.50;4.97;;;4.30;1.00;;;;;;5084487;28;20760;-75
2020/12/14 01:07:21;;;;;;;5.28;4.82;;;4.30;1.00;;;;;;5084026;28;20287;-76
2020/12/14 01:09:48;;;;;;;4.85;4.40;;;4.30;1.00;;;;;;5082699;28;20217;-74
2020/12/14 01:12:16;;;;;;;5.53;5.03;;;4.30;1.00;;;;;;5079030;28;20775;-75
2020/12/14 01:14:43;;;;;;;5.35;4.85;;;4.30;1.00;;;;;;5084968;28;20203;-74
2020/12/14 01:17:11;;;;;;;5.82;4.00;;;4.30;1.00;;;;;;5085879;28;20222;-74
2020/12/14 01:19:38;;;;;;;4.38;3.97;;;4.30;1.00;;;;;;5075655;28;20222;-74
2020/12/14 01:22:05;;;;;;;3.92;3.58;;;4.20;1.00;;;;;;5085696;28;20206;-76
2020/12/14 01:24:32;;;;;;;4.30;3.90;;;4.20;1.00;;;;;;5090480;28;20212;-75
2020/12/14 01:26:59;;;;;;;4.82;4.38;;;4.20;1.00;;;;;;5079142;28;20290;-74
2020/12/14 01:29:27;;;;;;;4.88;4.38;;;4.20;1.00;;;;;;5058817;28;20747;-76
2020/12/14 01:31:54;;;;;;;4.90;3.83;;;4.30;1.00;;;;;;5060214;28;20314;-75
2020/12/14 01:34:21;;;;;;;4.10;3.70;;;4.30;1.00;;;;;;5085262;28;20209;-75
2020/12/14 01:36:49;;;;;;;4.53;3.72;;;4.20;1.00;;;;;;5065490;28;20229;-75
2020/12/14 01:39:17;;;;;;;4.40;3.83;;;4.20;1.00;;;;;;5087238;28;20730;-75
2020/12/14 01:41:44;;;;;;;6.10;4.75;;;4.10;1.00;;;;;;5082077;28;20220;-75
2020/12/14 01:44:11;;;;;;;4.53;4.07;;;4.10;1.00;;;;;;5086242;28;20681;-75
2020/12/14 01:46:46;;;;;;;4.72;4.22;;;4.20;1.00;;;;;;5067266;28;20251;-74
2020/12/14 01:49:13;;;;;;;3.75;3.47;;;4.10;1.00;;;;;;5080685;28;20767;-75
2020/12/14 01:51:40;;;;;;;3.95;3.65;;;4.10;1.00;;;;;;5085846;28;20230;-75
2020/12/14 01:54:17;;;;;;;3.85;3.50;;;4.10;1.00;;;;;;5067277;28;20266;-75
2020/12/14 01:56:44;;;;;;;5.13;4.00;;;4.10;1.00;;;;;;5074688;28;20254;-75
2020/12/14 01:59:11;;;;;;;4.55;4.00;;;4.10;1.00;;;;;;5082034;28;20575;-75
2020/12/14 02:01:39;;;;;;;5.35;4.22;;;4.20;1.00;;;;;;5074702;28;20217;-75
2020/12/14 02:04:06;;;;;;;4.32;3.65;;;4.20;1.00;;;;;;5085350;28;20219;-75
2020/12/14 02:06:34;;;;;;;4.32;3.92;;;4.30;1.00;;;;;;5065835;28;20265;-75
2020/12/14 02:09:01;;;;;;;4.80;4.15;;;4.20;1.00;;;;;;5081580;28;20223;-74
2020/12/14 02:11:28;;;;;;;4.10;3.75;;;4.10;1.00;;;;;;5080001;28;20210;-76
2020/12/14 02:13:55;;;;;;;4.00;3.58;;;4.10;1.00;;;;;;5085965;28;20302;-75
2020/12/14 02:16:22;;;;;;;4.35;3.95;;;4.20;1.00;;;;;;5082932;28;20216;-75
2020/12/14 02:18:51;;;;;;;5.13;3.75;;;4.20;1.00;;;;;;5078986;28;20256;-76
2020/12/14 02:21:18;;;;;;;5.65;4.25;;;4.10;1.00;;;;;;5062057;28;20218;-75
2020/12/14 02:23:45;;;;;;;3.78;3.33;;;4.20;1.00;;;;;;5081920;28;20931;-75
2020/12/14 02:26:13;;;;;;;4.03;3.67;;;4.10;1.00;;;;;;5082156;28;20211;-74
2020/12/14 02:28:40;;;;;;;5.70;4.53;;;4.20;1.00;;;;;;5075264;28;20931;-75
2020/12/14 02:31:07;;;;;;;4.20;3.67;;;4.20;1.00;;;;;;5060480;28;20209;-74
2020/12/14 02:33:35;;;;;;;4.80;4.40;;;4.20;1.00;;;;;;5079276;28;20270;-74
2020/12/14 02:36:02;;;;;;;3.65;3.25;;;4.10;1.00;;;;;;5086120;28;20269;-74
2020/12/14 02:38:29;;;;;;;4.15;3.85;;;4.10;1.00;;;;;;5082687;28;20243;-74
2020/12/14 02:40:56;;;;;;;5.20;4.70;;;4.10;1.00;;;;;;5080430;28;20211;-75
2020/12/14 02:43:24;;;;;;;5.47;4.80;;;4.00;1.00;;;;;;5073435;28;20229;-75
2020/12/14 02:45:51;;;;;;;4.18;3.60;;;4.00;1.00;;;;;;5078242;28;20230;-75
2020/12/14 02:48:18;;;;;;;3.88;3.35;;;4.10;1.00;;;;;;5060042;28;20232;-76
2020/12/14 02:50:45;;;;;;;4.10;3.70;;;4.10;1.00;;;;;;5068676;28;20227;-76
2020/12/14 02:53:12;;;;;;;3.92;3.45;;;4.10;1.00;;;;;;5077186;28;20678;-74
2020/12/14 02:55:40;;;;;;;4.10;3.70;;;4.10;1.00;;;;;;5078038;28;20218;-75
2020/12/14 02:58:07;;;;;;;4.20;3.80;;;4.00;1.00;;;;;;5061658;28;20289;-74
2020/12/14 03:00:34;;;;;;;3.70;3.40;;;4.00;1.00;;;;;;5080629;28;20228;-75
2020/12/14 03:03:02;;;;;;;4.18;3.78;;;4.10;1.00;;;;;;5080575;28;20228;-75
2020/12/14 03:05:29;;;;;;;5.10;3.40;;;4.20;1.00;;;;;;5075080;28;20903;-74
2020/12/14 03:07:56;;;;;;;4.40;3.97;;;4.20;1.00;;;;;;5062394;28;20354;-75
2020/12/14 03:10:23;;;;;;;3.50;3.20;;;4.20;1.00;;;;;;5078951;28;20212;-75
2020/12/14 03:12:50;;;;;;;4.03;3.65;;;4.10;1.00;;;;;;5078393;28;20204;-75
2020/12/14 03:15:18;;;;;;;4.50;4.10;;;4.10;1.00;;;;;;5063022;28;20678;-76
2020/12/14 03:17:45;;;;;;;4.53;4.00;;;4.10;1.00;;;;;;5081389;28;20243;-74
2020/12/14 03:20:13;;;;;;;4.05;3.65;;;4.00;1.00;;;;;;5072641;28;20206;-74
2020/12/14 03:22:40;;;;;;;3.95;3.42;;;4.00;1.00;;;;;;5061742;28;20218;-74
2020/12/14 03:25:07;;;;;;;4.28;3.90;;;3.90;1.00;;;;;;5084529;28;20594;-74
2020/12/14 03:27:34;;;;;;;4.65;3.53;;;3.90;1.00;;;;;;5081756;28;20231;-75
2020/12/14 03:30:01;;;;;;;3.97;3.55;;;3.90;1.00;;;;;;5073282;28;20218;-75
2020/12/14 03:32:28;;;;;;;4.60;4.20;;;3.80;1.00;;;;;;5082070;28;20331;-74
2020/12/14 03:34:56;;;;;;;6.75;6.15;;;3.80;1.00;;;;;;5081775;28;20209;-74
2020/12/14 03:37:24;;;;;;;5.43;5.03;;;3.80;1.00;;;;;;5082639;28;20726;-74
2020/12/14 03:39:51;;;;;;;4.13;3.72;;;3.80;1.00;;;;;;5071402;28;20258;-74
2020/12/14 03:42:18;;;;;;;4.03;3.67;;;3.60;1.00;;;;;;5072958;28;20233;-74
2020/12/14 03:44:46;;;;;;;4.00;3.55;;;3.60;1.00;;;;;;5076171;28;20258;-75
2020/12/14 03:47:13;;;;;;;5.05;4.65;;;3.60;1.00;;;;;;5081271;28;20239;-75
2020/12/14 03:49:40;;;;;;;3.47;3.08;;;3.70;1.00;;;;;;5065962;28;22145;-75
2020/12/14 03:52:08;;;;;;;4.30;3.90;;;3.70;1.00;;;;;;5072723;28;20878;-74
2020/12/14 03:54:35;;;;;;;4.93;3.42;;;3.60;1.00;;;;;;5085440;28;20208;-75
2020/12/14 03:57:02;;;;;;;4.45;4.03;;;3.50;1.00;;;;;;5080421;28;20282;-75
2020/12/14 03:59:29;;;;;;;4.00;3.67;;;3.50;1.00;;;;;;5083400;28;20236;-75
2020/12/14 04:01:56;;;;;;;5.40;3.70;;;3.40;1.00;;;;;;5082955;28;20212;-74
2020/12/14 04:04:24;;;;;;;4.93;3.80;;;3.30;1.00;;;;;;5090462;28;20289;-75
2020/12/14 04:06:56;;;;;;;6.45;4.97;;;3.40;2.30;;;;;;5085477;28;20261;-75
2020/12/14 04:09:24;;;;;;;4.63;4.20;;;3.50;1.00;;;;;;5089082;28;20206;-75
2020/12/14 04:11:51;;;;;;;4.63;4.22;;;3.60;1.00;;;;;;5086704;28;20286;-75
2020/12/14 04:14:18;;;;;;;3.85;3.55;;;3.50;1.00;;;;;;5086802;28;20209;-75
2020/12/14 04:16:46;;;;;;;7.68;5.25;;;3.40;1.00;;;;;;5087551;28;20244;-75
2020/12/14 04:19:13;;;;;;;5.03;3.58;;;3.30;1.00;;;;;;5083263;28;20216;-75
2020/12/14 04:21:41;;;;;;;8.27;4.57;;;3.30;1.00;;;;;;5086682;28;20220;-75
2020/12/14 04:24:08;;;;;;;7.65;4.57;;;3.30;1.00;;;;;;5088673;28;20233;-73
2020/12/14 04:26:36;;;;;;;5.38;4.75;;;3.50;1.00;;;;;;5087592;28;20214;-76
2020/12/14 04:29:04;;;;;;;5.90;5.32;;;3.60;1.00;;;;;;5069538;28;20304;-72
2020/12/14 04:31:31;;;;;;;5.85;5.25;;;3.70;1.00;;;;;;5091038;28;20237;-75
2020/12/14 04:33:58;;;;;;;5.15;4.22;;;3.70;1.00;;;;;;5086518;28;20582;-75
2020/12/14 04:36:25;;;;;;;5.35;4.85;;;3.80;1.00;;;;;;5070159;28;20864;-76
2020/12/14 04:38:52;;;;;;;8.40;4.90;;;3.80;1.00;;;;;;5086944;28;20216;-75
2020/12/14 04:41:21;;;;;;;8.13;5.60;;;3.80;1.00;;;;;;5066211;28;20286;-75
2020/12/14 04:43:51;;;;;;;5.60;5.10;;;3.90;1.00;;;;;;5087576;28;20311;-75
2020/12/14 04:46:19;;;;;;;5.30;4.32;;;3.80;1.00;;;;;;5079530;28;20419;-76
2020/12/14 04:48:50;;;;;;;6.13;5.35;;;3.70;1.00;;;;;;5092732;28;20222;-76
2020/12/14 04:51:18;;;;;;;5.07;4.63;;;3.70;1.00;;;;;;5093071;28;20908;-76
2020/12/14 04:53:46;;;;;;;8.32;5.60;;;3.60;1.00;;;;;;5095247;28;20587;-76
2020/12/14 04:56:18;;;;;;;10.25;4.80;;;3.50;1.00;;;;;;5063677;28;20641;-75
2020/12/14 04:58:46;;;;;;;7.35;6.30;;;3.50;1.00;;;;;;5082201;28;20484;-76
2020/12/14 05:01:14;;;;;;;6.45;5.72;;;3.50;1.00;;;;;;5085669;28;20234;-76
2020/12/14 05:03:41;;;;;;;5.00;4.35;;;3.40;1.00;;;;;;5076893;28;20210;-75
2020/12/14 05:06:08;;;;;;;6.13;5.10;;;3.30;1.00;;;;;;5085947;28;20210;-73
2020/12/14 05:08:35;;;;;;;8.02;5.35;;;3.40;1.00;;;;;;5087613;28;20242;-73
2020/12/14 05:11:02;;;;;;;8.75;5.72;;;3.50;1.00;;;;;;5085676;28;20216;-75
2020/12/14 05:13:29;;;;;;;6.53;5.18;;;3.50;1.00;;;;;;5088472;28;20235;-75
2020/12/14 05:15:57;;;;;;;6.75;6.05;;;3.50;1.00;;;;;;5084790;28;20240;-75
2020/12/14 05:18:26;;;;;;;7.25;5.28;;;3.50;1.00;;;;;;5088443;28;20240;-75
2020/12/14 05:20:58;;;;;;;7.90;5.85;;;3.60;1.00;;;;;;5088847;28;20235;-72
2020/12/14 05:23:25;;;;;;;9.52;5.35;;;3.40;1.00;;;;;;5080712;28;20206;-74
2020/12/14 05:26:03;;;;;;;7.20;5.38;;;3.40;1.00;;;;;;5085727;28;20217;-74
2020/12/14 05:28:30;;;;;;;7.90;5.60;;;3.50;1.00;;;;;;5088893;28;20237;-74
2020/12/14 05:30:58;;;;;;;6.90;5.28;;;3.50;1.00;;;;;;5090028;28;20213;-74
2020/12/14 05:33:27;;;;;;;8.25;6.10;;;3.40;1.00;;;;;;5087507;28;20573;-72
2020/12/14 05:35:55;;;;;;;8.60;6.22;;;3.30;1.00;;;;;;5084273;28;20218;-71
2020/12/14 05:38:25;;;;;;;7.97;6.32;;;3.20;1.00;;;;;;5086720;28;20230;-73
2020/12/14 05:40:53;;;;;;;5.63;5.10;;;3.20;1.70;;;;;;5067384;28;20226;-72
2020/12/14 05:43:22;;;;;;;6.63;5.10;;;3.20;1.20;;;;;;5067902;28;20549;-72
2020/12/14 05:45:50;;;;;;;7.25;5.50;;;3.20;1.00;;;;;;5084653;28;20206;-72
2020/12/14 05:48:25;;;;;;;6.15;5.18;;;3.10;7.20;;;;;;5068040;28;20227;-72
2020/12/14 05:50:54;;;;;;;6.68;5.85;;;3.10;13.50;;;;;;5066381;28;20273;-72
2020/12/14 05:53:26;;;;;;;7.90;5.80;;;3.10;19.10;;;;;;5084141;28;20216;-72
2020/12/14 05:55:53;;;;;;;8.25;6.30;;;3.10;21.70;;;;;;5091387;28;20222;-72
2020/12/14 05:58:22;;;;;;;8.25;5.88;;;3.10;22.30;;;;;;5069135;28;20709;-74
2020/12/14 06:00:53;;;;;;;7.68;5.47;;;3.10;24.40;;;;;;5067497;28;20752;-72
2020/12/14 06:03:23;;;;;;;9.80;6.20;;;3.20;22.90;;;;;;5087703;28;20215;-72
2020/12/14 06:05:58;;;;;;;10.32;6.97;;;3.30;23.40;;;;;;5085114;28;20215;-73
2020/12/14 06:08:54;;;;;;;9.20;6.88;;;3.40;13.40;;;;;;5066532;28;20228;-72
2020/12/14 06:11:21;;;;;;;8.50;6.40;;;3.30;2.60;;;;;;5088066;28;20207;-72
2020/12/14 06:13:50;;;;;;;8.18;6.45;;;3.30;1.00;;;;;;5082131;28;20214;-72
2020/12/14 06:16:20;;;;;;;11.07;6.75;;;3.20;2.30;;;;;;5086991;28;20205;-72
2020/12/14 06:18:48;;;;;;;9.70;7.43;;;3.10;10.50;;;;;;5085980;28;21264;-73
2020/12/14 06:21:19;;;;;;;9.82;7.93;;;3.10;18.80;;;;;;5082589;28;20216;-71
2020/12/14 06:23:48;;;;;;;10.40;6.57;;;3.10;24.20;;;;;;5079596;28;20223;-71
2020/12/14 06:26:16;;;;;;;9.50;6.40;;;3.00;27.90;;;;;;5062773;28;20564;-71
2020/12/14 06:28:51;;;;;;;9.60;6.63;;;3.00;33.00;;;;;;5084397;28;20233;-71
2020/12/14 06:31:32;;;;;;;10.77;6.95;;;3.00;38.80;;;;;;5080895;28;20218;-70
2020/12/14 06:34:03;;;;;;;10.70;7.25;;;3.00;39.20;;;;;;5082513;28;20213;-72
2020/12/14 06:36:41;;;;;;;12.27;7.95;;;2.90;42.00;;;;;;5086370;28;20642;-71
2020/12/14 06:39:26;;;;;;;12.65;7.60;;;2.90;44.00;;;;;;5081325;28;20210;-71
2020/12/14 06:42:02;;;;;;;12.82;8.32;;;3.00;46.90;;;;;;5064905;28;20327;-70
2020/12/14 06:44:29;;;;;;;11.15;7.70;;;3.00;40.10;;;;;;5081529;28;20717;-72
2020/12/14 06:47:12;;;;;;;11.77;8.13;;;3.00;37.60;;;;;;5085062;28;20228;-72
2020/12/14 06:49:39;;;;;;;8.93;6.68;;;3.00;37.40;;;;;;5093029;28;20206;-68
2020/12/14 06:52:07;;;;;;;12.95;8.07;;;3.00;40.70;;;;;;5079497;28;20254;-70
2020/12/14 06:54:41;;;;;;;12.32;8.50;;;3.00;42.50;;;;;;5084190;28;20247;-70
2020/12/14 06:57:09;;;;;;;14.77;9.93;;;3.00;41.10;;;;;;5077366;28;20646;-70
2020/12/14 06:59:37;;;;;;;12.13;7.90;;;3.00;42.90;;;;;;5066315;28;20198;-70
2020/12/14 07:02:05;;;;;;;10.93;8.27;;;3.00;43.40;;;;;;5079634;28;20213;-71
2020/12/14 07:04:38;;;;;;;13.40;8.32;;;3.00;41.80;;;;;;5086470;28;20561;-70
2020/12/14 07:07:34;;;;;;;11.50;8.32;;;3.00;45.80;;;;;;5059443;28;20313;-70
2020/12/14 07:10:12;;;;;;;16.52;7.70;;;3.10;39.90;;;;;;5078563;28;20214;-70
2020/12/14 07:12:47;;;;;;;10.90;8.13;;;3.10;32.30;;;;;;5078975;28;20212;-71
2020/12/14 07:15:35;;;;;;;15.15;9.23;;;3.20;32.50;;;;;;5081310;28;20220;-72
2020/12/14 07:18:10;;;;;;;15.07;9.18;;;3.20;26.70;;;;;;5085215;28;20645;-71
2020/12/14 07:20:58;;;;;;;13.52;9.80;;;3.20;16.90;;;;;;5084227;28;20632;-72
2020/12/14 07:23:27;;;;;;;10.10;7.82;;;3.20;17.90;;;;;;5086725;28;20261;-73
2020/12/14 07:25:55;;;;;;;12.88;8.80;;;3.30;20.00;;;;;;5086175;28;20227;-71
2020/12/14 07:28:38;;;;;;;11.95;7.93;;;3.40;12.00;;;;;;5085803;28;20284;-74
2020/12/14 07:31:10;;;;;;;14.45;9.40;;;3.40;8.70;;;;;;5065769;28;20199;-71
2020/12/14 07:33:39;;;;;;;10.10;7.60;;;3.30;1.00;;;;;;5079588;28;20211;-72
2020/12/14 07:36:08;;;;;;;10.65;7.78;;;3.30;3.20;;;;;;5083450;28;20221;-70
2020/12/14 07:38:45;;;;;;;11.80;9.10;;;3.30;7.90;;;;;;5081821;28;20217;-72
2020/12/14 07:41:13;;;;;;;11.18;8.15;;;3.40;3.70;;;;;;5082647;28;20212;-72
2020/12/14 07:43:54;;;;;;;12.30;7.72;;;3.40;9.90;;;;;;5088973;28;20686;-70
2020/12/14 07:46:27;;;;;;;15.15;10.95;;;3.70;2.80;;;;;;5082987;28;20205;-72
2020/12/14 07:48:56;;;;;;;12.52;9.27;;;3.80;1.00;;;;;;5084687;28;20479;-71
2020/12/14 07:51:23;;;;;;;11.70;8.90;;;3.90;1.00;;;;;;5083893;28;20260;-72
2020/12/14 07:53:52;;;;;;;11.63;8.40;;;3.90;1.00;;;;;;5080208;28;20267;-72
2020/12/14 07:56:20;;;;;;;14.25;9.07;;;4.00;1.00;;;;;;5069971;28;20235;-72
2020/12/14 07:58:49;;;;;;;13.32;8.77;;;4.00;1.00;;;;;;5093272;28;20252;-72
2020/12/14 08:01:17;;;;;;;14.02;8.57;;;4.10;1.00;;;;;;5088400;28;20266;-70
2020/12/14 08:03:45;;;;;;;11.80;8.30;;;4.00;1.00;;;;;;5086823;28;20285;-73
2020/12/14 08:06:17;;;;;;;11.85;8.85;;;4.10;1.00;;;;;;5068085;28;20219;-73
2020/12/14 08:08:48;;;;;;;13.15;8.93;;;4.20;1.00;;;;;;5077251;28;20236;-73
2020/12/14 08:11:18;;;;;;;12.02;8.57;;;4.20;1.00;;;;;;5066092;28;20318;-73
2020/12/14 08:13:50;;;;;;;11.45;7.50;;;4.20;1.00;;;;;;5068253;28;20565;-73
2020/12/14 08:16:20;;;;;;;10.00;7.70;;;4.20;1.00;;;;;;5090292;28;20208;-72
2020/12/14 08:18:48;;;;;;;11.38;7.40;;;4.60;1.00;;;;;;5076381;28;20203;-73
2020/12/14 08:21:23;;;;;;;11.82;8.35;;;5.30;1.00;;;;;;5087659;28;20215;-74
2020/12/14 08:23:51;;;;;;;10.80;7.20;;;5.90;66.40;;;;;;5071937;28;20253;-75
2020/12/14 08:26:30;;;;;;;7.27;6.57;;;6.40;99.90;;;;;;5076766;28;20501;-76
2020/12/14 08:29:00;;;;;;;7.00;6.20;;;6.70;99.90;;;;;;5072262;28;20500;-75
2020/12/14 08:31:27;;;;;;;7.43;6.73;;;7.20;99.90;;;;;;5088797;28;20564;-74
2020/12/14 08:33:57;;;;;;;8.93;6.43;;;7.80;99.90;;;;;;5089213;28;20509;-75
2020/12/14 08:36:26;;;;;;;7.77;6.80;;;8.40;1.00;;;;;;5092220;28;20479;-75
2020/12/14 08:38:54;;;;;;;8.40;7.60;;;8.80;99.90;;;;;;5088742;28;20596;-76
2020/12/14 08:41:24;;;;;;;7.57;6.70;;;9.10;99.90;;;;;;5089689;28;20664;-76
2020/12/14 08:43:54;;;;;;;8.20;7.37;;;9.30;1.00;;;;;;5071106;28;20478;-77
2020/12/14 08:46:28;;;;;;;7.90;7.10;;;9.70;1.00;;;;;;5089251;28;20782;-73
2020/12/14 08:48:57;;;;;;;7.27;6.53;;;9.70;1.00;;;;;;5069993;28;20860;-74
2020/12/14 08:51:27;;;;;;;7.93;7.20;;;9.50;1.00;;;;;;5089144;28;20854;-75
2020/12/14 08:53:56;;;;;;;7.60;6.90;;;9.20;1.00;;;;;;5068576;28;20485;-77
2020/12/14 08:56:33;;;;;;;7.37;6.67;;;9.10;1.00;;;;;;5069107;28;20457;-77
2020/12/14 08:59:02;;;;;;;8.63;7.60;;;8.90;1.00;;;;;;5084619;28;20996;-76
2020/12/14 09:01:31;;;;;;;8.57;7.00;;;9.00;1.00;;;;;;5072486;28;20963;-75
2020/12/14 09:04:01;;;;;;;8.60;7.70;;;9.00;1.00;;;;;;5089071;28;20464;-76
2020/12/14 09:06:33;;;;;;;9.10;7.23;;;9.00;1.00;;;;;;5072339;28;21025;-75
2020/12/14 09:09:04;;;;;;;7.73;7.03;;;8.90;1.00;;;;;;5069455;28;20483;-75
2020/12/14 09:11:32;;;;;;;8.53;7.37;;;8.70;1.00;;;;;;5073140;28;20544;-74
2020/12/14 09:14:03;;;;;;;8.60;7.20;;;8.60;1.00;;;;;;5089849;28;20466;-76
2020/12/14 09:16:31;;;;;;;9.47;7.60;;;8.40;52.40;;;;;;5071610;28;20484;-74
2020/12/14 09:18:58;;;;;;;10.77;8.17;;;8.20;99.90;;;;;;5071426;28;20556;-75
2020/12/14 09:21:26;;;;;;;8.87;7.20;;;8.10;99.90;;;;;;5069051;28;20483;-73
2020/12/14 09:24:25;;;;;;;7.73;6.70;;;8.00;99.90;;;;;;5088079;28;20477;-73
2020/12/14 09:26:54;;;;;;;7.20;6.10;;;7.50;1.00;;;;;;5026059;28;20477;-74
2020/12/14 09:29:22;;;;;;;11.57;7.30;;;7.40;99.90;;;;;;5077998;28;20578;-74
2020/12/14 09:31:51;;;;;;;9.03;6.97;;;7.60;99.90;;;;;;5087753;28;20942;-74
2020/12/14 09:34:20;;;;;;;7.70;6.80;;;7.70;99.90;;;;;;5070321;28;20480;-74
2020/12/14 09:36:51;;;;;;;7.60;6.70;;;7.70;99.90;;;;;;5071440;28;20501;-74
2020/12/14 09:39:19;;;;;;;7.00;6.30;;;7.60;1.00;;;;;;5069204;28;20513;-74
2020/12/14 09:41:46;;;;;;;6.73;6.03;;;7.40;1.00;;;;;;5067163;28;20506;-73
2020/12/14 09:44:14;;;;;;;7.20;6.40;;;7.60;99.90;;;;;;5077485;28;20467;-75
2020/12/14 09:46:43;;;;;;;7.10;6.40;;;7.80;3.80;;;;;;5066670;28;20481;-77
2020/12/14 09:49:11;;;;;;;6.57;5.97;;;8.10;1.00;;;;;;5068882;28;20531;-76
2020/12/14 09:51:38;;;;;;;7.57;5.80;;;8.50;99.90;;;;;;5080981;28;20472;-75
2020/12/14 09:54:06;;;;;;;6.00;5.40;;;8.70;99.90;;;;;;5078773;28;20516;-76
2020/12/14 09:56:33;;;;;;;5.60;5.03;;;8.70;94.60;;;;;;5090174;28;21183;-73
2020/12/14 09:59:02;;;;;;;6.00;5.07;;;9.00;1.00;;;;;;5091712;28;20465;-74
2020/12/14 10:01:30;;;;;;;5.47;4.80;;;9.00;1.00;;;;;;5061387;28;20470;-74
2020/12/14 10:03:59;;;;;;;4.80;4.30;;;8.60;1.00;;;;;;5071231;28;20458;-76
2020/12/14 10:06:27;;;;;;;5.37;4.87;;;8.60;1.00;;;;;;5082108;28;20478;-72
2020/12/14 10:08:55;;;;;;;5.73;4.10;;;8.20;10.30;;;;;;5083589;28;20501;-73
2020/12/14 10:11:24;;;;;;;3.93;3.37;;;7.70;99.90;;;;;;5068452;28;20463;-74
2020/12/14 10:13:52;;;;;;;7.87;5.30;;;7.60;99.90;;;;;;5088648;28;20461;-74
2020/12/14 10:16:21;;;;;;;4.00;3.70;;;7.60;99.90;;;;;;5087006;28;20471;-74
2020/12/14 10:18:49;;;;;;;4.47;3.93;;;7.50;99.90;;;;;;5068520;28;20487;-73
2020/12/14 10:21:18;;;;;;;5.47;4.70;;;7.40;1.00;;;;;;5068388;28;20491;-73
2020/12/14 10:23:45;;;;;;;4.47;3.50;;;7.50;1.00;;;;;;5085731;28;20467;-73
2020/12/14 10:26:13;;;;;;;4.63;3.60;;;7.60;1.00;;;;;;5062392;28;20494;-74
2020/12/14 10:28:41;;;;;;;4.50;3.40;;;7.70;99.90;;;;;;5071163;28;20531;-73
2020/12/14 10:31:09;;;;;;;3.87;3.50;;;7.80;99.90;;;;;;5066731;28;20466;-73
2020/12/14 10:33:38;;;;;;;3.57;3.27;;;7.80;99.90;;;;;;5089435;28;20812;-73
2020/12/14 10:36:07;;;;;;;4.33;3.50;;;7.90;99.90;;;;;;5083888;28;21242;-73
2020/12/14 10:38:36;;;;;;;4.00;3.53;;;7.80;99.90;;;;;;5082251;28;20495;-73
2020/12/14 10:41:04;;;;;;;4.40;3.80;;;7.80;99.90;;;;;;5084832;28;22396;-73
2020/12/14 10:43:31;;;;;;;3.83;3.53;;;8.00;99.90;;;;;;5069789;28;20497;-73
2020/12/14 10:45:59;;;;;;;4.80;4.40;;;8.10;99.90;;;;;;5065178;28;20476;-72
2020/12/14 10:48:27;;;;;;;3.83;3.53;;;8.20;99.90;;;;;;5085390;28;21016;-73
2020/12/14 10:50:55;;;;;;;4.50;3.70;;;8.30;99.90;;;;;;5087874;28;20478;-73
2020/12/14 10:53:22;;;;;;;3.80;3.50;;;8.30;99.90;;;;;;5091754;28;20804;-73
2020/12/14 10:55:51;;;;;;;3.60;3.03;;;8.50;99.90;;;;;;5084045;28;20830;-73
2020/12/14 10:58:18;;;;;;;4.23;3.70;;;8.60;1.00;;;;;;5085542;28;20528;-73
2020/12/14 11:00:46;;;;;;;3.30;3.03;;;8.70;54.50;;;;;;5084931;28;20960;-76
2020/12/14 11:03:13;;;;;;;3.97;3.10;;;8.60;32.20;;;;;;5086263;28;20238;-75
2020/12/14 11:05:40;;;;;;;3.10;2.70;;;8.70;52.90;;;;;;5081773;28;20459;-74
2020/12/14 11:08:08;;;;;;;3.00;2.73;;;8.80;7.80;;;;;;5085479;28;20477;-73
2020/12/14 11:10:36;;;;;;;3.10;2.90;;;9.00;1.00;;;;;;5088009;28;20621;-76
2020/12/14 11:13:04;;;;;;;6.23;3.33;;;9.00;1.00;;;;;;5071898;28;20475;-74
2020/12/14 11:15:31;;;;;;;3.43;3.10;;;8.90;1.00;;;;;;5072105;28;20480;-73
2020/12/14 11:17:58;;;;;;;3.17;2.90;;;9.20;1.00;;;;;;5090292;28;20484;-73
2020/12/14 11:20:26;;;;;;;2.73;2.53;;;9.40;1.00;;;;;;5090421;28;20465;-74
2020/12/14 11:22:54;;;;;;;3.00;2.60;;;9.30;1.00;;;;;;5084854;28;20483;-73
2020/12/14 11:25:21;;;;;;;4.53;3.27;;;9.50;1.00;;;;;;5071073;28;20518;-74
2020/12/14 11:27:48;;;;;;;4.13;2.67;;;9.60;1.00;;;;;;5092272;28;20999;-73
2020/12/14 11:30:16;;;;;;;3.03;2.70;;;9.60;1.00;;;;;;5090238;28;20860;-73
2020/12/14 11:32:43;;;;;;;3.23;2.93;;;9.70;1.00;;;;;;5091049;28;20542;-73
2020/12/14 11:35:11;;;;;;;3.30;2.40;;;9.70;1.00;;;;;;5090933;28;21020;-77
2020/12/14 11:37:38;;;;;;;4.40;2.20;;;9.50;1.00;;;;;;5080434;28;20506;-74
2020/12/14 11:40:07;;;;;;;2.50;2.30;;;9.50;1.00;;;;;;5070193;28;20480;-72
2020/12/14 11:42:34;;;;;;;2.90;2.60;;;9.50;1.00;;;;;;5084520;28;20471;-70
2020/12/14 11:45:01;;;;;;;3.13;2.83;;;9.50;1.00;;;;;;5067453;28;20459;-71
2020/12/14 11:47:29;;;;;;;2.60;2.40;;;9.60;1.00;;;;;;5084045;28;20480;-73
2020/12/14 11:49:56;;;;;;;2.53;2.40;;;9.50;1.00;;;;;;5089466;28;20489;-73
2020/12/14 11:52:23;;;;;;;2.93;2.33;;;9.50;1.00;;;;;;5068938;28;20503;-75
2020/12/14 11:54:50;;;;;;;2.93;2.60;;;9.50;1.00;;;;;;5089413;28;21040;-73
2020/12/14 11:57:17;;;;;;;3.17;2.83;;;9.50;1.00;;;;;;5090578;28;20489;-74
2020/12/14 11:59:45;;;;;;;3.57;2.80;;;9.40;1.00;;;;;;5074914;28;20471;-74
2020/12/14 12:02:15;;;;;;;2.70;2.33;;;9.40;1.00;;;;;;5086050;28;20460;-73
2020/12/14 12:04:43;;;;;;;3.60;2.53;;;9.60;1.00;;;;;;5090657;28;20471;-73
2020/12/14 12:07:11;;;;;;;3.17;2.80;;;9.90;1.00;;;;;;5090940;28;20483;-73
2020/12/14 12:09:41;;;;;;;3.07;2.37;;;10.00;1.00;;;;;;5076092;28;20495;-72
2020/12/14 12:12:08;;;;;;;3.23;2.57;;;10.40;1.00;;;;;;5088618;28;20470;-74
2020/12/14 12:14:35;;;;;;;3.17;2.50;;;10.80;99.90;;;;;;5084305;28;20495;-73
2020/12/14 12:17:02;;;;;;;2.83;2.43;;;10.60;99.90;;;;;;5089941;28;20487;-74
2020/12/14 12:19:30;;;;;;;2.60;2.40;;;10.60;99.90;;;;;;5086801;28;20540;-74
2020/12/14 12:21:59;;;;;;;2.37;2.17;;;10.60;99.90;;;;;;5087522;28;20460;-73
2020/12/14 12:24:28;;;;;;;2.73;2.47;;;10.60;99.90;;;;;;5089931;28;20548;-75
2020/12/14 12:26:56;;;;;;;6.40;2.83;;;10.70;99.90;;;;;;5084538;28;20600;-73
2020/12/14 12:29:23;;;;;;;2.67;2.13;;;10.90;99.90;;;;;;5089322;28;20485;-74
2020/12/14 12:31:51;;;;;;;3.93;2.77;;;11.00;99.90;;;;;;5088738;28;20502;-74
2020/12/14 12:34:30;;;;;;;4.37;3.70;;;11.00;99.90;;;;;;5089729;28;20496;-74
2020/12/14 12:36:59;;;;;;;2.67;2.47;;;11.00;99.90;;;;;;5089190;28;20477;-74
2020/12/14 12:39:26;;;;;;;2.60;2.40;;;11.10;99.90;;;;;;5089466;28;20532;-74
2020/12/14 12:41:55;;;;;;;2.27;2.10;;;11.20;99.90;;;;;;5086041;28;20468;-74
2020/12/14 12:44:23;;;;;;;2.10;2.00;;;11.30;99.90;;;;;;5077661;28;20525;-74
2020/12/14 12:46:50;;;;;;;2.43;2.20;;;11.20;99.90;;;;;;5087062;28;20914;-74
2020/12/14 12:49:18;;;;;;;2.60;2.40;;;11.10;99.90;;;;;;5089293;28;20480;-74
2020/12/14 12:51:47;;;;;;;3.37;2.03;;;11.10;99.90;;;;;;5084667;28;20460;-74
2020/12/14 12:54:16;;;;;;;2.20;2.10;;;11.20;99.90;;;;;;5082181;28;20460;-73
2020/12/14 12:56:44;;;;;;;1.70;1.60;;;11.50;99.90;;;;;;5069279;28;20490;-73
2020/12/14 12:59:12;;;;;;;3.37;2.07;;;11.80;99.90;;;;;;5069059;28;20452;-74
2020/12/14 13:01:39;;;;;;;2.17;1.97;;;11.80;99.90;;;;;;5062147;28;20468;-73
2020/12/14 13:04:07;;;;;;;2.47;1.87;;;11.80;99.90;;;;;;5087808;28;20494;-73
2020/12/14 13:06:36;;;;;;;2.30;2.00;;;11.90;99.90;;;;;;5069654;28;20471;-73
2020/12/14 13:09:04;;;;;;;1.60;1.50;;;12.10;99.90;;;;;;5089093;28;20479;-73
2020/12/14 13:11:33;;;;;;;1.67;1.57;;;12.20;99.90;;;;;;5064352;28;20459;-73